Time;durP1;ratioP1;P1;durP2;ratioP2;P2;SDS_P1;SDS_P2;PMS_P1;PMS_P2;Temp;Humidity;BMP_temperature;BMP_pressure;BME280_temperature;BME280_humidity;BME280_pressure;Samples;Min_cycle;Max_cycle;Signal;HPM_P1;HPM_P2
2022/05/30 00:00:07;;;;;;;;;;;;;;;21.00;60.23;98752.94;2050161;28;19914;-47
2022/05/30 00:01:10;;;;;;;;;;;;;;;21.00;60.91;98744.69;2052097;28;20367;-47
2022/05/30 00:02:12;;;;;;;;;;;;;;;21.01;61.80;98748.19;2044390;28;19918;-48
2022/05/30 00:03:12;;;;;;;;;;;;;;;20.99;61.17;98756.91;2043320;28;19915;-47
2022/05/30 00:04:12;;;;;;;;;;;;;;;21.00;61.44;98752.94;2043124;28;19918;-47
2022/05/30 00:05:13;;;;;;;;;;;;;;;21.01;60.40;98748.19;2044506;28;20288;-47
2022/05/30 00:06:15;;;;;;;;;;;;;;;21.00;60.08;98750.19;2044171;28;19953;-46
2022/05/30 00:07:16;;;;;;;;;;;;;;;21.00;59.94;98747.44;2044488;28;19953;-47
2022/05/30 00:08:17;;;;;;;;;;;;;;;20.99;59.88;98740.41;2043544;28;19918;-47
2022/05/30 00:09:17;;;;;;;;;;;;;;;20.98;59.57;98749.91;2044821;28;20608;-46
2022/05/30 00:10:19;;;;;;;;;;;;;;;20.98;59.80;98749.91;2043902;28;20469;-48
2022/05/30 00:11:20;;;;;;;;;;;;;;;20.98;59.99;98754.63;2044123;28;19973;-45
2022/05/30 00:12:20;;;;;;;;;;;;;;;20.98;60.00;98749.91;2044685;28;20284;-48
2022/05/30 00:13:20;;;;;;;;;;;;;;;20.98;60.32;98747.16;2044590;28;20467;-47
2022/05/30 00:14:21;;;;;;;;;;;;;;;20.99;60.28;98750.66;2044859;28;19914;-47
2022/05/30 00:15:22;;;;;;;;;;;;;;;20.97;60.35;98742.84;2044547;28;19923;-48
2022/05/30 00:16:23;;;;;;;;;;;;;;;20.97;60.43;98745.63;2044969;28;20403;-50
2022/05/30 00:17:23;;;;;;;;;;;;;;;20.97;60.35;98737.34;2044600;28;19977;-50
2022/05/30 00:18:24;;;;;;;;;;;;;;;20.96;60.45;98738.56;2051817;28;20024;-47
2022/05/30 00:19:24;;;;;;;;;;;;;;;20.97;60.53;98742.84;2053061;28;19953;-49
2022/05/30 00:20:25;;;;;;;;;;;;;;;20.96;61.30;98744.06;2043109;28;19914;-46
2022/05/30 00:21:26;;;;;;;;;;;;;;;20.95;61.20;98742.53;2045014;28;20312;-47
2022/05/30 00:22:26;;;;;;;;;;;;;;;20.95;61.79;98750.78;2044534;28;19914;-47
2022/05/30 00:23:26;;;;;;;;;;;;;;;20.94;61.76;98746.50;2045141;28;19921;-47
2022/05/30 00:24:27;;;;;;;;;;;;;;;20.94;61.78;98743.00;2043479;28;19926;-47
2022/05/30 00:25:27;;;;;;;;;;;;;;;20.94;61.64;98745.75;2042797;28;20313;-47
2022/05/30 00:26:28;;;;;;;;;;;;;;;20.94;61.59;98749.25;2045152;28;19921;-48
2022/05/30 00:27:28;;;;;;;;;;;;;;;20.94;61.56;98752.00;2043182;28;20324;-46
2022/05/30 00:28:29;;;;;;;;;;;;;;;20.93;61.69;98747.00;2045402;28;19996;-47
2022/05/30 00:29:30;;;;;;;;;;;;;;;20.93;61.36;98742.25;2044291;28;20027;-47
2022/05/30 00:30:30;;;;;;;;;;;;;;;20.92;61.20;98748.97;2050197;28;19937;-49
2022/05/30 00:31:31;;;;;;;;;;;;;;;20.92;62.15;98751.72;2054826;28;20000;-47
2022/05/30 00:32:32;;;;;;;;;;;;;;;20.92;61.06;98748.97;2050244;28;20243;-47
2022/05/30 00:33:32;;;;;;;;;;;;;;;20.91;61.92;98752.94;2044570;28;20000;-47
2022/05/30 00:34:33;;;;;;;;;;;;;;;20.90;61.65;98748.66;2044481;28;19985;-47
2022/05/30 00:35:33;;;;;;;;;;;;;;;20.91;61.19;98750.19;2050788;28;20281;-47
2022/05/30 00:36:34;;;;;;;;;;;;;;;20.91;61.20;98750.19;2048038;28;19921;-47
2022/05/30 00:37:34;;;;;;;;;;;;;;;20.91;61.00;98750.19;2044416;28;19960;-50
2022/05/30 00:38:34;;;;;;;;;;;;;;;20.90;61.78;98751.41;2043201;28;20008;-47
2022/05/30 00:39:35;;;;;;;;;;;;;;;20.90;61.64;98747.88;2042709;28;19960;-47
2022/05/30 00:40:36;;;;;;;;;;;;;;;20.89;61.39;98747.13;2043775;28;19912;-46
2022/05/30 00:41:36;;;;;;;;;;;;;;;20.89;61.66;98752.63;2043076;28;19968;-47
2022/05/30 00:42:36;;;;;;;;;;;;;;;20.88;61.46;98755.84;2045468;28;20667;-50
2022/05/30 00:43:38;;;;;;;;;;;;;;;20.86;61.79;98745.28;2043539;28;20115;-46
2022/05/30 00:44:39;;;;;;;;;;;;;;;20.85;61.04;98743.75;2042310;28;19921;-47
2022/05/30 00:45:40;;;;;;;;;;;;;;;20.84;61.17;98736.72;2044579;28;19914;-47
2022/05/30 00:46:40;;;;;;;;;;;;;;;20.84;61.19;98750.47;2043612;28;19906;-46
2022/05/30 00:47:40;;;;;;;;;;;;;;;20.85;60.90;98743.00;2044399;28;19969;-47
2022/05/30 00:48:49;;;;;;;;;;;;;;;20.83;62.13;98748.94;2044322;28;20343;-47
2022/05/30 00:49:49;;;;;;;;;;;;;;;20.81;61.81;98750.63;2044764;28;19918;-49
2022/05/30 00:50:51;;;;;;;;;;;;;;;20.81;61.59;98745.13;2052742;28;21442;-46
2022/05/30 00:51:55;;;;;;;;;;;;;;;20.79;61.91;98748.31;2051166;28;20357;-46
2022/05/30 00:52:56;;;;;;;;;;;;;;;20.77;61.04;98748.03;2051698;28;19914;-48
2022/05/30 00:53:57;;;;;;;;;;;;;;;20.75;61.75;98735.94;2044043;28;19920;-47
2022/05/30 00:55:00;;;;;;;;;;;;;;;20.75;61.04;98742.22;2044381;28;19914;-47
2022/05/30 00:56:02;;;;;;;;;;;;;;;20.76;61.59;98743.75;2044150;28;19962;-47
2022/05/30 00:57:20;;;;;;;;;;;;;;;20.77;61.50;98744.50;2044713;28;19906;-47
2022/05/30 00:58:21;;;;;;;;;;;;;;;20.77;61.55;98747.28;2043480;28;20419;-46
2022/05/30 00:59:22;;;;;;;;;;;;;;;20.77;61.55;98745.28;2042805;28;20008;-47
2022/05/30 01:00:25;;;;;;;;;;;;;;;20.78;61.24;98746.06;2045063;28;19918;-46
2022/05/30 01:01:25;;;;;;;;;;;;;;;20.78;61.43;98752.28;2042839;28;20146;-46
2022/05/30 01:02:28;;;;;;;;;;;;;;;20.79;60.76;98742.81;2045141;28;19914;-47
2022/05/30 01:07:25;;;;;;;;;;;;;;;20.80;59.99;98743.59;2044822;28;20173;-47
2022/05/30 01:08:28;;;;;;;;;;;;;;;20.79;59.91;98748.31;2043283;28;19906;-47
2022/05/30 01:09:36;;;;;;;;;;;;;;;20.78;60.56;98743.31;2042770;28;19913;-48
2022/05/30 01:10:36;;;;;;;;;;;;;;;20.78;60.03;98743.31;2042064;28;20422;-45
2022/05/30 01:11:52;;;;;;;;;;;;;;;20.78;60.01;98749.53;2049404;28;19913;-48
2022/05/30 01:12:56;;;;;;;;;;;;;;;20.77;59.93;98745.28;2048299;28;19957;-46
2022/05/30 01:13:56;;;;;;;;;;;;;;;20.76;59.88;98743.75;2036050;29;20815;-48
2022/05/30 01:14:57;;;;;;;;;;;;;;;20.78;60.33;98746.06;2042027;28;19914;-48
2022/05/30 01:15:57;;;;;;;;;;;;;;;20.77;59.93;98750.03;2044646;28;19964;-46
2022/05/30 01:16:58;;;;;;;;;;;;;;;20.77;59.83;98748.03;2043875;28;19945;-47
2022/05/30 01:18:08;;;;;;;;;;;;;;;20.76;59.94;98740.22;2043650;28;19913;-47
2022/05/30 01:19:22;;;;;;;;;;;;;;;20.76;60.12;98748.47;2044888;28;19921;-46
2022/05/30 01:20:25;;;;;;;;;;;;;;;20.76;59.54;98743.75;2041065;28;19918;-51
2022/05/30 01:21:35;;;;;;;;;;;;;;;20.75;59.93;98744.97;2038907;28;19914;-46
2022/05/30 01:22:38;;;;;;;;;;;;;;;20.74;60.72;98748.16;2044487;28;20284;-47
2022/05/30 01:23:38;;;;;;;;;;;;;;;20.72;61.72;98743.13;2048559;28;19948;-47
2022/05/30 01:24:57;;;;;;;;;;;;;;;20.72;61.32;98747.88;2050769;28;19918;-48
2022/05/30 01:26:00;;;;;;;;;;;;;;;20.73;60.74;98743.91;2043278;28;19929;-47
2022/05/30 01:27:03;;;;;;;;;;;;;;;20.72;60.94;98743.13;2042832;28;20267;-48
2022/05/30 01:28:07;;;;;;;;;;;;;;;20.67;60.28;98745.72;2044043;28;19914;-46
2022/05/30 01:29:36;;;;;;;;;;;;;;;20.64;59.95;98739.13;2043558;28;20022;-48
2022/05/30 01:30:38;;;;;;;;;;;;;;;20.61;60.60;98740.81;2023569;28;20056;-49
2022/05/30 01:31:38;;;;;;;;;;;;;;;20.60;60.73;98742.03;2043977;28;19957;-46
2022/05/30 01:32:39;;;;;;;;;;;;;;;20.62;60.40;98744.34;2044130;28;19914;-46
2022/05/30 01:33:39;;;;;;;;;;;;;;;20.58;60.47;98738.19;2041178;28;19929;-47
2022/05/30 01:34:40;;;;;;;;;;;;;;;20.58;60.33;98746.44;2043656;28;19906;-48
2022/05/30 01:35:40;;;;;;;;;;;;;;;20.60;60.47;98741.28;2041362;28;20331;-47
2022/05/30 01:36:40;;;;;;;;;;;;;;;20.60;61.27;98742.03;2043499;28;19906;-50
2022/05/30 01:37:41;;;;;;;;;;;;;;;20.61;61.76;98740.81;2044463;28;20395;-48
2022/05/30 01:38:41;;;;;;;;;;;;;;;20.61;60.95;98743.56;2044370;28;19945;-46
2022/05/30 01:39:42;;;;;;;;;;;;;;;20.62;61.87;98747.84;2044103;28;19961;-48
2022/05/30 01:40:43;;;;;;;;;;;;;;;20.61;61.08;98751.81;2049999;28;20322;-46
2022/05/30 01:41:44;;;;;;;;;;;;;;;20.64;60.92;98753.66;2050730;28;19910;-47
2022/05/30 01:42:45;;;;;;;;;;;;;;;20.64;61.24;98750.91;2045301;28;19918;-46
2022/05/30 01:43:45;;;;;;;;;;;;;;;20.64;60.77;98753.66;2043835;28;19918;-47
2022/05/30 01:44:45;;;;;;;;;;;;;;;20.64;60.07;98753.66;2044454;28;20518;-47
2022/05/30 01:45:46;;;;;;;;;;;;;;;20.65;59.83;98754.41;2039050;28;19918;-46
2022/05/30 01:46:46;;;;;;;;;;;;;;;20.65;59.93;98751.66;2044028;28;19914;-46
2022/05/30 01:47:46;;;;;;;;;;;;;;;20.64;60.21;98755.63;2043273;28;20267;-50
2022/05/30 01:48:47;;;;;;;;;;;;;;;20.64;61.47;98752.88;2043447;28;20620;-48
2022/05/30 01:49:47;;;;;;;;;;;;;;;20.64;60.92;98752.88;2043912;28;19925;-46
2022/05/30 01:50:48;;;;;;;;;;;;;;;20.63;61.39;98754.88;2043370;28;20021;-46
2022/05/30 01:51:48;;;;;;;;;;;;;;;20.63;61.48;98759.59;2044157;28;19914;-49
2022/05/30 01:52:48;;;;;;;;;;;;;;;20.62;62.06;98755.34;2044544;28;19925;-47
2022/05/30 01:53:50;;;;;;;;;;;;;;;20.60;61.50;98750.28;2043368;28;21036;-49
2022/05/30 01:54:50;;;;;;;;;;;;;;;20.59;61.37;98757.00;2044611;28;20289;-47
2022/05/30 01:55:50;;;;;;;;;;;;;;;20.60;60.73;98752.28;2042599;28;19910;-47
2022/05/30 01:56:51;;;;;;;;;;;;;;;20.59;61.54;98748.00;2044336;28;19913;-47
2022/05/30 01:57:51;;;;;;;;;;;;;;;20.61;61.18;98762.06;2043383;28;19914;-46
2022/05/30 01:58:51;;;;;;;;;;;;;;;20.58;61.31;98749.97;2043602;28;19957;-48
2022/05/30 01:59:52;;;;;;;;;;;;;;;20.56;60.89;98746.16;2035787;28;19914;-47
2022/05/30 02:00:52;;;;;;;;;;;;;;;20.58;61.26;98743.69;2045075;28;19929;-49
2022/05/30 02:01:53;;;;;;;;;;;;;;;20.56;60.86;98749.69;2044652;28;19906;-46
2022/05/30 02:02:53;;;;;;;;;;;;;;;20.56;61.14;98746.16;2045253;28;20375;-48
2022/05/30 02:03:54;;;;;;;;;;;;;;;20.57;61.26;98747.66;2043441;28;19906;-47
2022/05/30 02:04:56;;;;;;;;;;;;;;;20.57;60.81;98748.44;2044300;28;19924;-47
2022/05/30 02:05:56;;;;;;;;;;;;;;;20.57;60.11;98753.94;2042530;28;19924;-46
2022/05/30 02:06:57;;;;;;;;;;;;;;;20.58;59.71;98749.19;2050587;28;19906;-46
2022/05/30 02:07:57;;;;;;;;;;;;;;;20.58;59.48;98755.47;2052981;28;20206;-48
2022/05/30 02:08:58;;;;;;;;;;;;;;;20.59;59.03;98748.00;2049308;28;20381;-46
2022/05/30 02:09:58;;;;;;;;;;;;;;;20.61;58.74;98753.81;2051246;28;19957;-46
2022/05/30 02:10:58;;;;;;;;;;;;;;;20.60;59.71;98757.78;2051118;28;20039;-48
2022/05/30 02:11:59;;;;;;;;;;;;;;;20.59;59.65;98750.72;2048726;28;19964;-48
2022/05/30 02:13:00;;;;;;;;;;;;;;;20.59;59.29;98754.25;2043957;28;20558;-49
2022/05/30 02:14:00;;;;;;;;;;;;;;;20.58;59.11;98758.22;2043980;28;19921;-47
2022/05/30 02:15:00;;;;;;;;;;;;;;;20.56;59.84;98757.94;2051722;28;19920;-47
2022/05/30 02:17:21;;;;;;;;;;;;;;;20.55;59.49;98756.38;2044774;28;19914;-46
2022/05/30 02:18:21;;;;;;;;;;;;;;;20.55;59.42;98759.13;2044137;28;19906;-46
2022/05/30 02:19:22;;;;;;;;;;;;;;;20.55;59.60;98763.88;2044735;28;19906;-47
2022/05/30 02:20:22;;;;;;;;;;;;;;;20.54;59.88;98757.59;2048278;28;19950;-47
2022/05/30 02:21:22;;;;;;;;;;;;;;;20.55;59.24;98766.63;2052325;28;20276;-47
2022/05/30 02:22:23;;;;;;;;;;;;;;;20.54;60.09;98765.84;2042533;28;19906;-48
2022/05/30 02:23:23;;;;;;;;;;;;;;;20.54;60.13;98765.09;2047176;28;19914;-48
2022/05/30 02:24:24;;;;;;;;;;;;;;;20.54;60.34;98765.09;2037668;28;19918;-46
2022/05/30 02:25:24;;;;;;;;;;;;;;;20.52;60.90;98764.75;2042195;28;19918;-46
2022/05/30 02:26:25;;;;;;;;;;;;;;;20.49;60.72;98758.19;2046139;28;19951;-46
2022/05/30 02:27:25;;;;;;;;;;;;;;;20.48;60.31;98764.16;2045045;28;19913;-46
2022/05/30 02:28:27;;;;;;;;;;;;;;;20.45;59.79;98767.81;2043878;28;19906;-46
2022/05/30 02:29:27;;;;;;;;;;;;;;;20.44;59.80;98760.78;2045814;28;19921;-47
2022/05/30 02:30:28;;;;;;;;;;;;;;;20.43;60.44;98762.00;2045517;28;20679;-47
2022/05/30 02:31:28;;;;;;;;;;;;;;;20.42;61.35;98769.47;2047902;28;19916;-46
2022/05/30 02:32:28;;;;;;;;;;;;;;;20.42;60.73;98768.72;2037034;28;20454;-47
2022/05/30 02:37:26;;;;;;;;;;;;;;;20.42;61.44;98771.47;2043830;28;19964;-47
2022/05/30 02:38:26;;;;;;;;;;;;;;;20.41;61.64;98776.19;2044932;28;19922;-47
2022/05/30 02:39:27;;;;;;;;;;;;;;;20.43;61.79;98767.50;2046517;28;19968;-46
2022/05/30 02:40:27;;;;;;;;;;;;;;;20.42;61.70;98785.22;2045292;28;19921;-47
2022/05/30 02:41:28;;;;;;;;;;;;;;;20.43;61.26;98775.75;2045277;28;19980;-48
2022/05/30 02:42:28;;;;;;;;;;;;;;;20.44;61.37;98778.06;2050662;28;19914;-46
2022/05/30 02:43:28;;;;;;;;;;;;;;;20.44;61.58;98777.28;2051405;28;19914;-46
2022/05/30 02:44:29;;;;;;;;;;;;;;;20.41;61.04;98775.44;2043057;28;20066;-47
2022/05/30 02:45:29;;;;;;;;;;;;;;;20.40;60.68;98784.91;2044422;28;20024;-48
2022/05/30 02:46:29;;;;;;;;;;;;;;;20.35;61.18;98780.00;2045381;28;20642;-49
2022/05/30 02:47:30;;;;;;;;;;;;;;;20.33;60.68;98785.19;2045238;28;21367;-46
2022/05/30 02:48:30;;;;;;;;;;;;;;;20.31;60.08;98782.88;2053187;28;19910;-48
2022/05/30 02:49:31;;;;;;;;;;;;;;;20.31;59.98;98791.13;2051397;28;19964;-47
2022/05/30 02:50:31;;;;;;;;;;;;;;;20.34;60.76;98789.47;2044166;28;19933;-47
2022/05/30 02:51:32;;;;;;;;;;;;;;;20.33;61.00;98788.69;2045047;28;19968;-47
2022/05/30 02:52:32;;;;;;;;;;;;;;;20.34;60.74;98778.47;2044682;28;20575;-49
2022/05/30 02:53:32;;;;;;;;;;;;;;;20.35;60.78;98791.78;2045533;28;19922;-46
2022/05/30 02:54:32;;;;;;;;;;;;;;;20.35;61.51;98791.00;2045369;28;19914;-51
2022/05/30 02:55:33;;;;;;;;;;;;;;;20.36;61.34;98795.25;2044526;28;19906;-47
2022/05/30 02:56:33;;;;;;;;;;;;;;;20.37;60.68;98794.06;2042422;28;19914;-48
2022/05/30 02:57:34;;;;;;;;;;;;;;;20.38;60.30;98790.84;2047630;28;19993;-46
2022/05/30 02:58:34;;;;;;;;;;;;;;;20.38;61.22;98790.09;2052818;28;19914;-47
2022/05/30 02:59:34;;;;;;;;;;;;;;;20.35;61.50;98786.28;2044844;28;19906;-46
2022/05/30 03:00:34;;;;;;;;;;;;;;;20.35;61.55;98796.50;2043719;28;19914;-46
2022/05/30 03:01:35;;;;;;;;;;;;;;;20.36;61.69;98796.03;2046100;28;19910;-46
2022/05/30 03:02:35;;;;;;;;;;;;;;;20.35;61.46;98797.28;2042266;28;19918;-46
2022/05/30 03:03:35;;;;;;;;;;;;;;;20.35;61.68;98800.03;2039093;28;19997;-46
2022/05/30 03:04:35;;;;;;;;;;;;;;;20.34;61.79;98795.75;2043286;28;19989;-47
2022/05/30 03:05:37;;;;;;;;;;;;;;;20.33;61.92;98802.44;2043974;28;19910;-47
2022/05/30 03:06:37;;;;;;;;;;;;;;;20.33;61.76;98809.94;2052892;28;19921;-46
2022/05/30 03:07:38;;;;;;;;;;;;;;;20.31;61.57;98806.81;2051682;28;19922;-46
2022/05/30 03:08:38;;;;;;;;;;;;;;;20.30;61.75;98808.06;2045050;28;19945;-48
2022/05/30 03:09:38;;;;;;;;;;;;;;;20.28;61.67;98802.25;2044642;28;19914;-49
2022/05/30 03:10:39;;;;;;;;;;;;;;;20.30;61.83;98811.59;2044053;28;19920;-48
2022/05/30 03:11:39;;;;;;;;;;;;;;;20.31;61.91;98815.06;2042421;28;20262;-48
2022/05/30 03:12:39;;;;;;;;;;;;;;;20.32;61.31;98813.88;2043592;28;19965;-47
2022/05/30 03:13:40;;;;;;;;;;;;;;;20.31;61.23;98815.88;2042268;28;19922;-48
2022/05/30 03:14:40;;;;;;;;;;;;;;;20.33;60.20;98809.94;2053328;28;19918;-47
2022/05/30 03:15:41;;;;;;;;;;;;;;;20.33;59.93;98818.19;2052146;28;20410;-48
2022/05/30 03:16:41;;;;;;;;;;;;;;;20.34;59.64;98811.47;2046937;28;19914;-48
2022/05/30 03:17:41;;;;;;;;;;;;;;;20.34;59.56;98825.97;2040118;28;19953;-46
2022/05/30 03:18:42;;;;;;;;;;;;;;;20.35;59.11;98818.50;2044825;28;19937;-46
2022/05/30 03:19:42;;;;;;;;;;;;;;;20.34;59.32;98827.97;2045734;28;20037;-48
2022/05/30 03:20:43;;;;;;;;;;;;;;;20.33;59.07;98815.44;2045493;28;20002;-48
2022/05/30 03:21:43;;;;;;;;;;;;;;;20.31;59.00;98821.38;2043856;28;19965;-45
2022/05/30 03:22:43;;;;;;;;;;;;;;;20.33;59.32;98821.69;2046021;28;20358;-49
2022/05/30 03:23:43;;;;;;;;;;;;;;;20.33;59.07;98813.44;2045058;28;20566;-46
2022/05/30 03:24:44;;;;;;;;;;;;;;;20.32;58.95;98811.13;2043544;28;19949;-48
2022/05/30 03:25:45;;;;;;;;;;;;;;;20.32;59.25;98816.63;2046023;28;19914;-47
2022/05/30 03:26:45;;;;;;;;;;;;;;;20.30;60.23;98810.81;2043731;28;19914;-48
2022/05/30 03:27:45;;;;;;;;;;;;;;;20.30;60.62;98819.81;2046364;28;19952;-47
2022/05/30 03:28:45;;;;;;;;;;;;;;;20.27;61.55;98819.94;2043980;28;20337;-46
2022/05/30 03:29:46;;;;;;;;;;;;;;;20.27;61.70;98812.47;2044156;28;19918;-46
2022/05/30 03:30:46;;;;;;;;;;;;;;;20.28;61.03;98814.00;2045542;28;20338;-47
2022/05/30 03:31:46;;;;;;;;;;;;;;;20.28;60.66;98813.22;2051736;28;20244;-46
2022/05/30 03:32:46;;;;;;;;;;;;;;;20.29;60.51;98814.78;2051531;28;20366;-46
2022/05/30 03:33:47;;;;;;;;;;;;;;;20.27;60.64;98811.69;2045054;28;20025;-48
2022/05/30 03:34:47;;;;;;;;;;;;;;;20.27;60.71;98808.94;2043957;28;19973;-47
2022/05/30 03:35:47;;;;;;;;;;;;;;;20.27;61.10;98811.69;2052141;28;19914;-47
2022/05/30 03:36:48;;;;;;;;;;;;;;;20.25;61.92;98812.13;2050732;28;19910;-47
2022/05/30 03:37:48;;;;;;;;;;;;;;;20.23;61.15;98809.09;2038986;28;19914;-47
2022/05/30 03:38:48;;;;;;;;;;;;;;;20.24;60.15;98814.16;2044965;28;19906;-48
2022/05/30 03:39:48;;;;;;;;;;;;;;;20.25;60.15;98825.88;2043843;28;19977;-49
2022/05/30 03:40:49;;;;;;;;;;;;;;;20.24;60.53;98819.66;2045034;28;20343;-48
2022/05/30 03:41:50;;;;;;;;;;;;;;;20.24;61.62;98818.88;2050944;28;24089;-47
2022/05/30 03:42:50;;;;;;;;;;;;;;;20.22;61.95;98816.56;2050318;28;19906;-47
2022/05/30 03:43:50;;;;;;;;;;;;;;;20.22;61.21;98824.06;2044162;28;19914;-47
2022/05/30 03:44:51;;;;;;;;;;;;;;;20.23;60.93;98820.09;2044743;28;19914;-46
2022/05/30 03:45:51;;;;;;;;;;;;;;;20.25;59.60;98820.38;2043968;28;19918;-47
2022/05/30 03:46:51;;;;;;;;;;;;;;;20.25;60.53;98829.41;2045246;28;19906;-50
2022/05/30 03:47:51;;;;;;;;;;;;;;;20.23;60.25;98831.09;2043377;28;19990;-47
2022/05/30 03:48:52;;;;;;;;;;;;;;;20.24;59.99;98836.16;2044959;28;20449;-47
2022/05/30 03:49:59;;;;;;;;;;;;;;;20.23;59.85;98831.84;2044678;28;19914;-46
2022/05/30 03:51:02;;;;;;;;;;;;;;;20.22;59.41;98838.56;2046095;28;19910;-47
2022/05/30 03:52:03;;;;;;;;;;;;;;;20.23;59.45;98839.34;2044727;28;19914;-46
2022/05/30 03:53:06;;;;;;;;;;;;;;;20.22;60.22;98835.03;2044471;28;19950;-47
2022/05/30 03:54:07;;;;;;;;;;;;;;;20.24;59.79;98841.63;2044788;28;20407;-47
2022/05/30 03:55:11;;;;;;;;;;;;;;;20.24;59.07;98844.38;2045020;28;19924;-47
2022/05/30 03:56:12;;;;;;;;;;;;;;;20.24;59.02;98846.38;2042999;28;20436;-48
2022/05/30 03:57:12;;;;;;;;;;;;;;;20.23;58.97;98848.34;2044383;28;19925;-48
2022/05/30 03:58:13;;;;;;;;;;;;;;;20.21;59.46;98839.78;2044846;28;19910;-47
2022/05/30 03:59:13;;;;;;;;;;;;;;;20.20;59.57;98841.00;2050466;28;19913;-48
2022/05/30 04:00:18;;;;;;;;;;;;;;;20.22;58.82;98844.06;2053940;28;20860;-47
2022/05/30 04:01:19;;;;;;;;;;;;;;;20.21;58.98;98842.53;2043811;28;19988;-46
2022/05/30 04:02:19;;;;;;;;;;;;;;;20.21;58.82;98842.53;2044323;28;19918;-46
2022/05/30 04:03:19;;;;;;;;;;;;;;;20.21;58.99;98837.03;2043973;28;20041;-46
2022/05/30 04:04:20;;;;;;;;;;;;;;;20.21;58.69;98831.53;2041634;28;19918;-47
2022/05/30 04:05:20;;;;;;;;;;;;;;;20.21;58.87;98837.03;2044587;28;19914;-49
2022/05/30 04:06:21;;;;;;;;;;;;;;;20.22;58.44;98846.81;2044794;28;19957;-50
2022/05/30 04:07:21;;;;;;;;;;;;;;;20.22;58.82;98843.28;2043662;28;19914;-46
2022/05/30 04:08:22;;;;;;;;;;;;;;;20.19;59.26;98844.97;2045641;28;19914;-47
2022/05/30 04:09:22;;;;;;;;;;;;;;;20.19;59.18;98844.97;2043539;28;19934;-47
2022/05/30 04:10:23;;;;;;;;;;;;;;;20.17;59.12;98847.41;2045655;28;19920;-46
2022/05/30 04:11:23;;;;;;;;;;;;;;;20.18;58.77;98837.94;2037142;28;19925;-47
2022/05/30 04:12:23;;;;;;;;;;;;;;;20.18;58.55;98837.94;2042451;28;19922;-47
2022/05/30 04:13:24;;;;;;;;;;;;;;;20.18;58.90;98848.94;2044395;28;19906;-48
2022/05/30 04:14:24;;;;;;;;;;;;;;;20.18;58.90;98854.44;2043931;28;19917;-46
2022/05/30 04:15:25;;;;;;;;;;;;;;;20.16;58.74;98851.34;2044328;28;19924;-46
2022/05/30 04:16:25;;;;;;;;;;;;;;;20.18;59.10;98850.91;2043140;28;20288;-50
2022/05/30 04:17:26;;;;;;;;;;;;;;;20.17;59.07;98852.91;2052599;28;20028;-46
2022/05/30 04:18:26;;;;;;;;;;;;;;;20.17;58.75;98850.16;2049934;28;19998;-46
2022/05/30 04:19:27;;;;;;;;;;;;;;;20.16;58.67;98847.84;2044819;28;19922;-49
2022/05/30 04:20:27;;;;;;;;;;;;;;;20.17;58.95;98854.88;2044311;28;19914;-47
2022/05/30 04:21:28;;;;;;;;;;;;;;;20.16;58.63;98856.84;2045663;28;20371;-48
2022/05/30 04:22:29;;;;;;;;;;;;;;;20.17;58.54;98858.38;2045389;28;20110;-47
2022/05/30 04:23:29;;;;;;;;;;;;;;;20.15;58.90;98854.53;2042613;28;20102;-46
2022/05/30 04:24:30;;;;;;;;;;;;;;;20.14;58.94;98859.31;2042247;28;19985;-47
2022/05/30 04:25:30;;;;;;;;;;;;;;;20.15;59.09;98852.56;2042347;28;19918;-47
2022/05/30 04:26:30;;;;;;;;;;;;;;;20.16;59.00;98856.09;2051185;28;20382;-46
2022/05/30 04:27:32;;;;;;;;;;;;;;;20.15;58.70;98854.53;2043467;28;20252;-46
2022/05/30 04:28:32;;;;;;;;;;;;;;;20.14;58.62;98859.31;2044679;28;20284;-46
2022/05/30 04:29:32;;;;;;;;;;;;;;;20.13;58.86;98857.75;2043474;28;20052;-48
2022/05/30 04:30:33;;;;;;;;;;;;;;;20.12;59.17;98858.97;2044136;28;20392;-47
2022/05/30 04:31:33;;;;;;;;;;;;;;;20.13;59.30;98854.25;2043264;28;19921;-47
2022/05/30 04:32:34;;;;;;;;;;;;;;;20.11;60.08;98856.66;2043457;28;19918;-46
2022/05/30 04:33:35;;;;;;;;;;;;;;;20.10;60.43;98855.13;2043991;28;19922;-47
2022/05/30 04:34:36;;;;;;;;;;;;;;;20.10;59.92;98861.41;2042570;28;19926;-47
2022/05/30 04:35:36;;;;;;;;;;;;;;;20.09;61.60;98862.59;2043524;28;19914;-47
2022/05/30 04:36:36;;;;;;;;;;;;;;;20.06;61.79;98866.25;2043049;28;19969;-47
2022/05/30 04:37:37;;;;;;;;;;;;;;;20.06;60.92;98866.25;2044176;28;20343;-48
2022/05/30 04:38:37;;;;;;;;;;;;;;;20.07;60.24;98865.06;2044913;28;19913;-47
2022/05/30 04:39:38;;;;;;;;;;;;;;;20.06;60.30;98863.50;2042508;28;19914;-47
2022/05/30 04:40:38;;;;;;;;;;;;;;;20.06;60.46;98871.75;2044414;28;20284;-47
2022/05/30 04:41:38;;;;;;;;;;;;;;;20.06;60.93;98863.50;2042867;28;20395;-47
2022/05/30 04:42:39;;;;;;;;;;;;;;;20.05;60.75;98864.72;2043516;28;20310;-47
2022/05/30 04:43:40;;;;;;;;;;;;;;;20.04;61.68;98871.44;2043129;28;19918;-48
2022/05/30 04:44:40;;;;;;;;;;;;;;;20.06;61.94;98873.75;2041659;28;20019;-47
2022/05/30 04:45:41;;;;;;;;;;;;;;;20.04;61.79;98871.44;2041176;28;19918;-47
2022/05/30 04:46:41;;;;;;;;;;;;;;;20.05;62.00;98869.44;2043542;28;19920;-48
2022/05/30 04:47:42;;;;;;;;;;;;;;;20.02;62.27;98867.63;2043882;28;19918;-47
2022/05/30 04:48:43;;;;;;;;;;;;;;;20.00;60.98;98870.03;2043523;28;19906;-47
2022/05/30 04:49:43;;;;;;;;;;;;;;;19.99;60.94;98866.50;2042860;28;19968;-47
2022/05/30 04:50:44;;;;;;;;;;;;;;;19.99;60.11;98868.50;2044348;28;19914;-46
2022/05/30 04:51:44;;;;;;;;;;;;;;;19.98;61.06;98867.75;2042661;28;19914;-46
2022/05/30 04:52:45;;;;;;;;;;;;;;;19.95;61.72;98874.13;2043352;28;19925;-47
2022/05/30 04:53:46;;;;;;;;;;;;;;;19.93;62.30;98876.56;2044943;28;20030;-49
2022/05/30 04:54:46;;;;;;;;;;;;;;;19.92;61.58;98871.50;2043839;28;20910;-48
2022/05/30 04:55:47;;;;;;;;;;;;;;;19.92;61.90;98877.00;2043162;28;19914;-46
2022/05/30 04:56:47;;;;;;;;;;;;;;;19.91;62.29;98873.50;2043171;28;19906;-49
2022/05/30 04:57:49;;;;;;;;;;;;;;;19.94;60.95;98872.59;2044665;28;19918;-48
2022/05/30 04:58:50;;;;;;;;;;;;;;;19.95;62.03;98876.88;2042242;28;20706;-47
2022/05/30 04:59:50;;;;;;;;;;;;;;;19.95;60.79;98874.13;2042084;28;19945;-46
2022/05/30 05:01:01;;;;;;;;;;;;;;;19.97;60.39;98871.72;2042514;28;19914;-46
2022/05/30 05:02:01;;;;;;;;;;;;;;;19.98;60.52;98877.97;2044159;28;20295;-48
2022/05/30 05:03:02;;;;;;;;;;;;;;;19.97;60.96;98874.44;2044516;28;19910;-48
2022/05/30 05:04:06;;;;;;;;;;;;;;;19.97;61.20;98877.19;2044498;28;20009;-46
2022/05/30 05:05:06;;;;;;;;;;;;;;;19.96;61.45;98872.16;2043652;28;19914;-47
2022/05/30 05:06:09;;;;;;;;;;;;;;;19.95;60.71;98876.88;2042966;28;19956;-46
2022/05/30 05:07:10;;;;;;;;;;;;;;;19.97;60.08;98884.69;2043323;28;19914;-46
2022/05/30 05:08:16;;;;;;;;;;;;;;;19.98;59.60;98895.22;2043733;28;19921;-46
2022/05/30 05:09:23;;;;;;;;;;;;;;;19.98;59.85;98884.25;2043407;28;20437;-47
2022/05/30 05:10:28;;;;;;;;;;;;;;;19.97;60.19;98884.69;2044052;28;20449;-47
2022/05/30 05:11:31;;;;;;;;;;;;;;;19.96;60.14;98894.13;2046400;28;20180;-46
2022/05/30 05:12:31;;;;;;;;;;;;;;;19.95;60.54;98890.63;2043120;28;20572;-47
2022/05/30 05:13:31;;;;;;;;;;;;;;;19.93;61.16;98892.28;2042958;28;20389;-50
2022/05/30 05:14:32;;;;;;;;;;;;;;;19.96;60.07;98891.38;2044158;28;20325;-47
2022/05/30 05:15:32;;;;;;;;;;;;;;;19.97;59.73;98892.91;2043061;28;19960;-47
2022/05/30 05:16:32;;;;;;;;;;;;;;;19.95;59.29;98901.59;2044478;28;20498;-47
2022/05/30 05:17:33;;;;;;;;;;;;;;;19.96;60.07;98894.91;2042925;28;20401;-46
2022/05/30 05:18:33;;;;;;;;;;;;;;;19.96;59.53;98907.88;2044243;28;19913;-50
2022/05/30 05:19:34;;;;;;;;;;;;;;;19.94;59.92;98902.81;2044777;28;19914;-46
2022/05/30 05:20:38;;;;;;;;;;;;;;;19.94;59.75;98900.06;2051005;28;20683;-45
2022/05/30 05:21:39;;;;;;;;;;;;;;;19.92;60.41;98905.25;2050431;28;20514;-46
2022/05/30 05:22:40;;;;;;;;;;;;;;;19.91;60.95;98905.69;2044503;28;19957;-46
2022/05/30 05:23:40;;;;;;;;;;;;;;;19.91;60.68;98903.72;2045157;28;19921;-48
2022/05/30 05:24:40;;;;;;;;;;;;;;;19.89;60.96;98906.13;2042529;28;19922;-47
2022/05/30 05:25:41;;;;;;;;;;;;;;;19.91;59.87;98905.69;2041090;28;20134;-48
2022/05/30 05:26:43;;;;;;;;;;;;;;;19.92;59.36;98913.50;2042275;28;19930;-46
2022/05/30 05:27:44;;;;;;;;;;;;;;;19.89;60.88;98905.38;2045770;28;19905;-48